Saint Louis, Oregon
Current Conditions -  °F | °C
As of 12:53 PM on Tuesday 21 Oct 2014 (Local Time) from KMMV Reporting Station
Overcast Overcast  
Wind Chill: 59°   Ceiling: 4000
Heat Index: 59°   Visibility: 10mi
Dew Point: 51°   Wind: 14mph
Humidity: 75%   Direction: 180°S
Pressure: 30"   Gusts: NA
Location:  45.1057°N, 122.945°W
Report Text: KMMV 211953Z AUTO 18012KT 10SM BKN040 OVC050 15/11 A3000 RMK AO2 SLP159 T01500106
Loading
Personal Weather Stations






























Interactive Weather Map
Tropical Storm Tracking
New forecast layout! Learn more

10-Day Weather Forecast

Advertisements
Track Severe Weather on mobile